sensor_id;sensor_type;location;lat;lon;timestamp;pressure;altitude;pressure_sealevel;temperature;humidity
38466;BME280;24244;51.950;5.902;2023-04-15T00:02:15;100774.84;;;9.87;61.52
38466;BME280;24244;51.950;5.902;2023-04-15T00:04:42;100775.03;;;9.85;61.35
38466;BME280;24244;51.950;5.902;2023-04-15T00:07:09;100771.72;;;9.83;61.66
38466;BME280;24244;51.950;5.902;2023-04-15T00:09:35;100774.38;;;9.83;61.45
38466;BME280;24244;51.950;5.902;2023-04-15T00:12:04;100768.41;;;9.81;61.60
38466;BME280;24244;51.950;5.902;2023-04-15T00:14:31;100771.28;;;9.79;61.65
38466;BME280;24244;51.950;5.902;2023-04-15T00:16:58;100773.94;;;9.79;61.60
38466;BME280;24244;51.950;5.902;2023-04-15T00:19:25;100773.44;;;9.76;61.77
38466;BME280;24244;51.950;5.902;2023-04-15T00:21:51;100773.63;;;9.74;61.91
38466;BME280;24244;51.950;5.902;2023-04-15T00:24:18;100772.78;;;9.74;61.78
38466;BME280;24244;51.950;5.902;2023-04-15T00:26:45;100772.34;;;9.70;62.00
38466;BME280;24244;51.950;5.902;2023-04-15T00:29:14;100778.66;;;9.69;62.18
38466;BME280;24244;51.950;5.902;2023-04-15T00:31:40;100771.69;;;9.68;62.03
38466;BME280;24244;51.950;5.902;2023-04-15T00:34:07;100769.22;;;9.67;62.25
38466;BME280;24244;51.950;5.902;2023-04-15T00:36:34;100779.00;;;9.66;62.12
38466;BME280;24244;51.950;5.902;2023-04-15T00:39:02;100768.59;;;9.65;62.29
38466;BME280;24244;51.950;5.902;2023-04-15T00:41:28;100767.94;;;9.63;62.51
38466;BME280;24244;51.950;5.902;2023-04-15T00:43:55;100770.75;;;9.61;62.59
38466;BME280;24244;51.950;5.902;2023-04-15T00:46:24;100770.09;;;9.59;62.33
38466;BME280;24244;51.950;5.902;2023-04-15T00:48:53;100772.75;;;9.59;62.44
38466;BME280;24244;51.950;5.902;2023-04-15T00:51:20;100773.78;;;9.58;62.47
38466;BME280;24244;51.950;5.902;2023-04-15T00:53:47;100777.44;;;9.57;62.64
38466;BME280;24244;51.950;5.902;2023-04-15T00:56:15;100773.13;;;9.56;62.57
38466;BME280;24244;51.950;5.902;2023-04-15T00:58:42;100768.00;;;9.55;62.73
38466;BME280;24244;51.950;5.902;2023-04-15T01:01:09;100770.00;;;9.53;62.88
38466;BME280;24244;51.950;5.902;2023-04-15T01:03:38;100770.22;;;9.51;62.66
38466;BME280;24244;51.950;5.902;2023-04-15T01:06:06;100776.50;;;9.50;62.76
38466;BME280;24244;51.950;5.902;2023-04-15T01:08:33;100772.19;;;9.49;62.96
38466;BME280;24244;51.950;5.902;2023-04-15T01:11:01;100770.53;;;9.48;63.12
38466;BME280;24244;51.950;5.902;2023-04-15T01:13:29;100779.69;;;9.46;62.99
38466;BME280;24244;51.950;5.902;2023-04-15T01:15:56;100780.88;;;9.43;62.92
38466;BME280;24244;51.950;5.902;2023-04-15T01:18:23;100781.88;;;9.42;62.93
38466;BME280;24244;51.950;5.902;2023-04-15T01:20:51;100775.91;;;9.40;63.02
38466;BME280;24244;51.950;5.902;2023-04-15T01:23:19;100781.22;;;9.40;63.27
38466;BME280;24244;51.950;5.902;2023-04-15T01:25:49;100784.88;;;9.39;63.34
38466;BME280;24244;51.950;5.902;2023-04-15T01:28:16;100785.25;;;9.36;63.47
38466;BME280;24244;51.950;5.902;2023-04-15T01:30:43;100786.25;;;9.35;63.24
38466;BME280;24244;51.950;5.902;2023-04-15T01:33:10;100786.41;;;9.33;63.34
38466;BME280;24244;51.950;5.902;2023-04-15T01:35:37;100789.25;;;9.32;63.29
38466;BME280;24244;51.950;5.902;2023-04-15T01:38:08;100775.97;;;9.32;63.83
38466;BME280;24244;51.950;5.902;2023-04-15T01:40:35;100780.66;;;9.30;63.64
38466;BME280;24244;51.950;5.902;2023-04-15T01:43:03;100780.81;;;9.28;63.83
38466;BME280;24244;51.950;5.902;2023-04-15T01:45:29;100777.34;;;9.28;63.81
38466;BME280;24244;51.950;5.902;2023-04-15T01:47:56;100784.31;;;9.29;63.79
38466;BME280;24244;51.950;5.902;2023-04-15T01:50:23;100781.81;;;9.27;63.88
38466;BME280;24244;51.950;5.902;2023-04-15T01:52:51;100788.13;;;9.26;63.70
38466;BME280;24244;51.950;5.902;2023-04-15T01:55:18;100784.66;;;9.26;64.09
38466;BME280;24244;51.950;5.902;2023-04-15T01:57:45;100780.34;;;9.25;64.01
38466;BME280;24244;51.950;5.902;2023-04-15T02:00:13;100786.00;;;9.22;64.12
38466;BME280;24244;51.950;5.902;2023-04-15T02:02:40;100781.88;;;9.19;64.14
38466;BME280;24244;51.950;5.902;2023-04-15T02:05:08;100779.22;;;9.19;64.29
38466;BME280;24244;51.950;5.902;2023-04-15T02:07:35;100785.34;;;9.20;64.44
38466;BME280;24244;51.950;5.902;2023-04-15T02:10:03;100779.22;;;9.19;64.39
38466;BME280;24244;51.950;5.902;2023-04-15T02:12:29;100783.69;;;9.19;64.38
38466;BME280;24244;51.950;5.902;2023-04-15T02:14:56;100788.34;;;9.17;64.35
38466;BME280;24244;51.950;5.902;2023-04-15T02:17:24;100784.91;;;9.16;64.50
38466;BME280;24244;51.950;5.902;2023-04-15T02:19:51;100784.06;;;9.16;64.54
38466;BME280;24244;51.950;5.902;2023-04-15T02:22:18;100789.38;;;9.16;64.42
38466;BME280;24244;51.950;5.902;2023-04-15T02:24:45;100792.84;;;9.16;64.43
38466;BME280;24244;51.950;5.902;2023-04-15T02:27:14;100799.16;;;9.15;64.44
38466;BME280;24244;51.950;5.902;2023-04-15T02:29:42;100790.38;;;9.15;64.73
38466;BME280;24244;51.950;5.902;2023-04-15T02:32:09;100798.31;;;9.15;64.77
38466;BME280;24244;51.950;5.902;2023-04-15T02:34:38;100798.31;;;9.15;64.70
38466;BME280;24244;51.950;5.902;2023-04-15T02:37:07;100801.16;;;9.13;64.96
38466;BME280;24244;51.950;5.902;2023-04-15T02:39:34;100797.66;;;9.13;64.91
38466;BME280;24244;51.950;5.902;2023-04-15T02:42:01;100814.56;;;9.12;64.98
38466;BME280;24244;51.950;5.902;2023-04-15T02:44:28;100812.91;;;9.11;65.03
38466;BME280;24244;51.950;5.902;2023-04-15T02:46:54;100811.25;;;9.10;64.96
38466;BME280;24244;51.950;5.902;2023-04-15T02:49:21;100813.28;;;9.08;65.12
38466;BME280;24244;51.950;5.902;2023-04-15T02:51:50;100818.59;;;9.08;65.39
38466;BME280;24244;51.950;5.902;2023-04-15T02:54:20;100821.41;;;9.06;65.24
38466;BME280;24244;51.950;5.902;2023-04-15T02:56:49;100819.75;;;9.05;65.18
38466;BME280;24244;51.950;5.902;2023-04-15T02:59:16;100822.41;;;9.05;65.21
38466;BME280;24244;51.950;5.902;2023-04-15T03:01:44;100834.84;;;9.04;65.37
38466;BME280;24244;51.950;5.902;2023-04-15T03:04:11;100823.78;;;9.01;65.39
38466;BME280;24244;51.950;5.902;2023-04-15T03:06:39;100818.63;;;8.99;65.43
38466;BME280;24244;51.950;5.902;2023-04-15T03:09:08;100819.63;;;8.98;65.65
38466;BME280;24244;51.950;5.902;2023-04-15T03:11:34;100824.28;;;8.96;65.49
38466;BME280;24244;51.950;5.902;2023-04-15T03:14:06;100825.28;;;8.95;65.67
38466;BME280;24244;51.950;5.902;2023-04-15T03:16:32;100823.66;;;8.94;65.70
38466;BME280;24244;51.950;5.902;2023-04-15T03:18:59;100831.59;;;8.94;65.94
38466;BME280;24244;51.950;5.902;2023-04-15T03:21:26;100818.34;;;8.94;65.84
38466;BME280;24244;51.950;5.902;2023-04-15T03:23:53;100829.94;;;8.93;65.98
38466;BME280;24244;51.950;5.902;2023-04-15T03:26:25;100834.59;;;8.91;65.88
38466;BME280;24244;51.950;5.902;2023-04-15T03:28:54;100832.09;;;8.90;66.03
38466;BME280;24244;51.950;5.902;2023-04-15T03:31:21;100828.63;;;8.89;66.06
38466;BME280;24244;51.950;5.902;2023-04-15T03:33:48;100842.69;;;8.90;66.14
38466;BME280;24244;51.950;5.902;2023-04-15T03:36:15;100845.53;;;8.88;65.98
38466;BME280;24244;51.950;5.902;2023-04-15T03:38:42;100847.53;;;8.86;66.01
38466;BME280;24244;51.950;5.902;2023-04-15T03:41:09;100851.34;;;8.84;66.31
38466;BME280;24244;51.950;5.902;2023-04-15T03:43:37;100849.84;;;8.81;66.40
38466;BME280;24244;51.950;5.902;2023-04-15T03:46:04;100851.50;;;8.82;66.46
38466;BME280;24244;51.950;5.902;2023-04-15T03:48:31;100848.22;;;8.80;66.43
38466;BME280;24244;51.950;5.902;2023-04-15T03:50:58;100848.41;;;8.79;66.49
38466;BME280;24244;51.950;5.902;2023-04-15T03:53:24;100846.75;;;8.78;66.67
38466;BME280;24244;51.950;5.902;2023-04-15T03:55:51;100857.34;;;8.78;66.68
38466;BME280;24244;51.950;5.902;2023-04-15T03:58:18;100857.50;;;8.76;66.78
38466;BME280;24244;51.950;5.902;2023-04-15T04:00:46;100858.34;;;8.77;66.48
38466;BME280;24244;51.950;5.902;2023-04-15T04:03:13;100867.28;;;8.76;66.53
38466;BME280;24244;51.950;5.902;2023-04-15T04:05:41;100866.44;;;8.75;66.63
38466;BME280;24244;51.950;5.902;2023-04-15T04:08:09;100871.94;;;8.74;66.74
38466;BME280;24244;51.950;5.902;2023-04-15T04:10:39;100870.28;;;8.73;66.71
38466;BME280;24244;51.950;5.902;2023-04-15T04:13:06;100869.63;;;8.71;67.10
38466;BME280;24244;51.950;5.902;2023-04-15T04:15:32;100874.09;;;8.70;67.04
38466;BME280;24244;51.950;5.902;2023-04-15T04:18:01;100879.41;;;8.70;66.91
38466;BME280;24244;51.950;5.902;2023-04-15T04:20:27;100879.72;;;8.67;67.08
38466;BME280;24244;51.950;5.902;2023-04-15T04:22:54;100884.22;;;8.67;67.17
38466;BME280;24244;51.950;5.902;2023-04-15T04:25:21;100889.53;;;8.67;67.13
38466;BME280;24244;51.950;5.902;2023-04-15T04:27:48;100888.69;;;8.66;67.18
38466;BME280;24244;51.950;5.902;2023-04-15T04:30:15;100895.81;;;8.66;67.17
38466;BME280;24244;51.950;5.902;2023-04-15T04:32:42;100900.28;;;8.65;67.25
38466;BME280;24244;51.950;5.902;2023-04-15T04:35:10;100901.28;;;8.64;67.21
38466;BME280;24244;51.950;5.902;2023-04-15T04:37:37;100901.44;;;8.62;67.37
38466;BME280;24244;51.950;5.902;2023-04-15T04:40:05;100907.09;;;8.59;67.24
38466;BME280;24244;51.950;5.902;2023-04-15T04:42:32;100912.41;;;8.59;67.55
38466;BME280;24244;51.950;5.902;2023-04-15T04:44:59;100914.38;;;8.57;67.43
38466;BME280;24244;51.950;5.902;2023-04-15T04:47:27;100913.72;;;8.55;67.62
38466;BME280;24244;51.950;5.902;2023-04-15T04:49:53;100926.28;;;8.53;67.84
38466;BME280;24244;51.950;5.902;2023-04-15T04:52:22;100920.16;;;8.53;67.79
38466;BME280;24244;51.950;5.902;2023-04-15T04:54:48;100924.84;;;8.51;67.64
38466;BME280;24244;51.950;5.902;2023-04-15T04:57:16;100933.78;;;8.50;67.60
38466;BME280;24244;51.950;5.902;2023-04-15T04:59:42;100937.41;;;8.49;67.71
38466;BME280;24244;51.950;5.902;2023-04-15T05:02:09;100939.22;;;8.48;67.84
38466;BME280;24244;51.950;5.902;2023-04-15T05:04:36;100942.88;;;8.47;67.86
38466;BME280;24244;51.950;5.902;2023-04-15T05:07:03;100941.56;;;8.43;68.01
38466;BME280;24244;51.950;5.902;2023-04-15T05:09:31;100947.84;;;8.42;67.81
38466;BME280;24244;51.950;5.902;2023-04-15T05:12:01;100945.22;;;8.42;68.06
38466;BME280;24244;51.950;5.902;2023-04-15T05:14:28;100955.97;;;8.41;68.12
38466;BME280;24244;51.950;5.902;2023-04-15T05:16:55;100952.84;;;8.37;68.32
38466;BME280;24244;51.950;5.902;2023-04-15T05:19:22;100963.44;;;8.37;68.56
38466;BME280;24244;51.950;5.902;2023-04-15T05:21:49;100967.75;;;8.38;68.20
38466;BME280;24244;51.950;5.902;2023-04-15T05:24:16;100967.91;;;8.37;68.19
38466;BME280;24244;51.950;5.902;2023-04-15T05:26:44;100975.84;;;8.37;68.54
38466;BME280;24244;51.950;5.902;2023-04-15T05:29:11;100974.84;;;8.38;68.48
38466;BME280;24244;51.950;5.902;2023-04-15T05:31:37;100978.50;;;8.37;68.56
38466;BME280;24244;51.950;5.902;2023-04-15T05:34:04;100987.06;;;8.39;68.73
38466;BME280;24244;51.950;5.902;2023-04-15T05:36:32;100983.44;;;8.40;68.44
38466;BME280;24244;51.950;5.902;2023-04-15T05:38:59;100987.75;;;8.41;68.50
38466;BME280;24244;51.950;5.902;2023-04-15T05:41:26;100989.41;;;8.42;68.46
38466;BME280;24244;51.950;5.902;2023-04-15T05:43:54;100990.41;;;8.41;69.21
38466;BME280;24244;51.950;5.902;2023-04-15T05:46:21;100986.75;;;8.42;69.10
38466;BME280;24244;51.950;5.902;2023-04-15T05:48:48;100996.38;;;8.43;69.17
38466;BME280;24244;51.950;5.902;2023-04-15T05:51:15;100996.84;;;8.46;69.10
38466;BME280;24244;51.950;5.902;2023-04-15T05:53:42;101002.50;;;8.51;69.32
38466;BME280;24244;51.950;5.902;2023-04-15T05:56:09;100997.66;;;8.55;69.24
38466;BME280;24244;51.950;5.902;2023-04-15T05:58:36;101009.59;;;8.59;69.28
38466;BME280;24244;51.950;5.902;2023-04-15T06:01:04;101010.09;;;8.62;69.26
38466;BME280;24244;51.950;5.902;2023-04-15T06:03:31;101000.00;;;8.66;68.92
38466;BME280;24244;51.950;5.902;2023-04-15T06:05:58;101010.91;;;8.71;69.23
38466;BME280;24244;51.950;5.902;2023-04-15T06:08:24;101015.69;;;8.76;69.10
38466;BME280;24244;51.950;5.902;2023-04-15T06:10:51;101021.16;;;8.82;69.09
38466;BME280;24244;51.950;5.902;2023-04-15T06:13:18;101024.13;;;8.87;68.97
38466;BME280;24244;51.950;5.902;2023-04-15T06:15:45;101027.25;;;8.91;68.76
38466;BME280;24244;51.950;5.902;2023-04-15T06:18:13;101032.88;;;8.96;68.88
38466;BME280;24244;51.950;5.902;2023-04-15T06:20:40;101037.84;;;8.99;69.32
38466;BME280;24244;51.950;5.902;2023-04-15T06:23:07;101042.66;;;9.03;69.07
38466;BME280;24244;51.950;5.902;2023-04-15T06:25:34;101043.97;;;9.08;69.13
38466;BME280;24244;51.950;5.902;2023-04-15T06:28:00;101053.41;;;9.10;69.18
38466;BME280;24244;51.950;5.902;2023-04-15T06:30:27;101048.59;;;9.14;68.94
38466;BME280;24244;51.950;5.902;2023-04-15T06:32:54;101057.84;;;9.18;69.11
38466;BME280;24244;51.950;5.902;2023-04-15T06:35:22;101064.50;;;9.22;69.02
38466;BME280;24244;51.950;5.902;2023-04-15T06:37:50;101066.63;;;9.26;69.17
38466;BME280;24244;51.950;5.902;2023-04-15T06:40:17;101068.94;;;9.29;68.97
38466;BME280;24244;51.950;5.902;2023-04-15T06:42:44;101076.56;;;9.32;69.09
38466;BME280;24244;51.950;5.902;2023-04-15T06:45:11;101089.66;;;9.34;69.29
38466;BME280;24244;51.950;5.902;2023-04-15T06:47:37;101084.19;;;9.35;69.00
38466;BME280;24244;51.950;5.902;2023-04-15T06:50:05;101084.84;;;9.37;69.13
38466;BME280;24244;51.950;5.902;2023-04-15T06:52:33;101093.44;;;9.39;69.25
38466;BME280;24244;51.950;5.902;2023-04-15T06:55:00;101092.28;;;9.42;68.78
38466;BME280;24244;51.950;5.902;2023-04-15T06:57:27;101100.91;;;9.44;69.17
38466;BME280;24244;51.950;5.902;2023-04-15T06:59:54;101099.56;;;9.48;69.15
38466;BME280;24244;51.950;5.902;2023-04-15T07:02:22;101104.69;;;9.50;68.75
38466;BME280;24244;51.950;5.902;2023-04-15T07:04:48;101113.34;;;9.52;68.82
38466;BME280;24244;51.950;5.902;2023-04-15T07:07:15;101113.34;;;9.52;69.08
38466;BME280;24244;51.950;5.902;2023-04-15T07:09:44;101122.75;;;9.54;68.80
38466;BME280;24244;51.950;5.902;2023-04-15T07:12:11;101117.13;;;9.49;68.74
38466;BME280;24244;51.950;5.902;2023-04-15T07:14:37;101122.91;;;9.53;68.83
38466;BME280;24244;51.950;5.902;2023-04-15T07:17:04;101125.41;;;9.54;68.77
38466;BME280;24244;51.950;5.902;2023-04-15T07:19:32;101126.91;;;9.57;68.87
38466;BME280;24244;51.950;5.902;2023-04-15T07:21:59;101130.38;;;9.57;68.82
38466;BME280;24244;51.950;5.902;2023-04-15T07:24:26;101131.03;;;9.59;68.79
38466;BME280;24244;51.950;5.902;2023-04-15T07:26:54;101137.00;;;9.61;68.56
38466;BME280;24244;51.950;5.902;2023-04-15T07:29:26;101140.47;;;9.62;68.54
38466;BME280;24244;51.950;5.902;2023-04-15T07:31:53;101145.47;;;9.65;68.51
38466;BME280;24244;51.950;5.902;2023-04-15T07:34:22;101143.28;;;9.68;68.40
38466;BME280;24244;51.950;5.902;2023-04-15T07:36:49;101156.22;;;9.71;68.49
38466;BME280;24244;51.950;5.902;2023-04-15T07:39:17;101159.50;;;9.73;68.39
38466;BME280;24244;51.950;5.902;2023-04-15T07:41:44;101154.88;;;9.75;68.04
38466;BME280;24244;51.950;5.902;2023-04-15T07:44:13;101162.50;;;9.78;68.22
38466;BME280;24244;51.950;5.902;2023-04-15T07:46:40;101159.84;;;9.78;68.37
38466;BME280;24244;51.950;5.902;2023-04-15T07:49:07;101171.09;;;9.80;68.04
38466;BME280;24244;51.950;5.902;2023-04-15T07:51:34;101162.50;;;9.78;68.29
38466;BME280;24244;51.950;5.902;2023-04-15T07:54:01;101171.78;;;9.82;68.53
38466;BME280;24244;51.950;5.902;2023-04-15T07:56:29;101174.09;;;9.86;68.61
38466;BME280;24244;51.950;5.902;2023-04-15T07:58:56;101166.75;;;9.88;68.57
38466;BME280;24244;51.950;5.902;2023-04-15T08:01:24;101175.56;;;9.88;68.55
38466;BME280;24244;51.950;5.902;2023-04-15T08:03:52;101181.22;;;9.93;68.91
38466;BME280;24244;51.950;5.902;2023-04-15T08:06:19;101184.00;;;10.00;68.61
38466;BME280;24244;51.950;5.902;2023-04-15T08:08:46;101182.47;;;10.05;68.79
38466;BME280;24244;51.950;5.902;2023-04-15T08:11:13;101190.59;;;10.12;68.29
38466;BME280;24244;51.950;5.902;2023-04-15T08:13:40;101188.91;;;10.19;68.25
38466;BME280;24244;51.950;5.902;2023-04-15T08:16:17;101189.22;;;10.24;68.23
38466;BME280;24244;51.950;5.902;2023-04-15T08:18:47;101191.38;;;10.29;67.70
38466;BME280;24244;51.950;5.902;2023-04-15T08:21:15;101198.00;;;10.33;67.69
38466;BME280;24244;51.950;5.902;2023-04-15T08:23:42;101198.81;;;10.33;67.21
38466;BME280;24244;51.950;5.902;2023-04-15T08:26:09;101196.81;;;10.35;67.19
38466;BME280;24244;51.950;5.902;2023-04-15T08:28:37;101201.44;;;10.41;67.26
38466;BME280;24244;51.950;5.902;2023-04-15T08:31:04;101199.06;;;10.46;66.89
38466;BME280;24244;51.950;5.902;2023-04-15T08:33:31;101189.78;;;10.50;66.62
38466;BME280;24244;51.950;5.902;2023-04-15T08:35:59;101197.22;;;10.55;66.16
38466;BME280;24244;51.950;5.902;2023-04-15T08:38:27;101194.84;;;10.60;66.08
38466;BME280;24244;51.950;5.902;2023-04-15T08:40:55;101211.75;;;10.67;66.26
38466;BME280;24244;51.950;5.902;2023-04-15T08:43:27;101213.25;;;10.70;65.45
38466;BME280;24244;51.950;5.902;2023-04-15T08:45:59;101210.03;;;10.74;65.90
38466;BME280;24244;51.950;5.902;2023-04-15T08:48:28;101212.81;;;10.81;65.70
38466;BME280;24244;51.950;5.902;2023-04-15T08:50:55;101229.38;;;10.91;65.73
38466;BME280;24244;51.950;5.902;2023-04-15T08:53:24;101219.69;;;10.98;65.79
38466;BME280;24244;51.950;5.902;2023-04-15T08:55:52;101226.13;;;11.04;65.78
38466;BME280;24244;51.950;5.902;2023-04-15T08:58:22;101229.91;;;11.09;65.39
38466;BME280;24244;51.950;5.902;2023-04-15T09:00:50;101228.56;;;11.13;65.23
38466;BME280;24244;51.950;5.902;2023-04-15T09:03:17;101231.34;;;11.20;65.28
38466;BME280;24244;51.950;5.902;2023-04-15T09:05:44;101233.63;;;11.23;65.14
38466;BME280;24244;51.950;5.902;2023-04-15T09:08:12;101245.75;;;11.25;64.65
38466;BME280;24244;51.950;5.902;2023-04-15T09:10:40;101242.75;;;11.28;64.61
38466;BME280;24244;51.950;5.902;2023-04-15T09:13:07;101241.75;;;11.29;64.59
38466;BME280;24244;51.950;5.902;2023-04-15T09:15:37;101238.97;;;11.37;65.07
38466;BME280;24244;51.950;5.902;2023-04-15T09:18:04;101252.59;;;11.43;65.00
38466;BME280;24244;51.950;5.902;2023-04-15T09:20:39;101251.22;;;11.47;64.49
38466;BME280;24244;51.950;5.902;2023-04-15T09:23:12;101253.72;;;11.48;64.21
38466;BME280;24244;51.950;5.902;2023-04-15T09:25:41;101256.19;;;11.50;64.14
38466;BME280;24244;51.950;5.902;2023-04-15T09:28:08;101270.97;;;11.52;64.27
38466;BME280;24244;51.950;5.902;2023-04-15T09:30:36;101266.13;;;11.56;63.80
38466;BME280;24244;51.950;5.902;2023-04-15T09:33:03;101264.91;;;11.58;63.90
38466;BME280;24244;51.950;5.902;2023-04-15T09:35:34;101263.00;;;11.67;64.36
38466;BME280;24244;51.950;5.902;2023-04-15T09:38:03;101261.78;;;11.77;64.36
38466;BME280;24244;51.950;5.902;2023-04-15T09:40:31;101271.53;;;11.85;64.00
38466;BME280;24244;51.950;5.902;2023-04-15T09:43:00;101272.81;;;11.89;63.83
38466;BME280;24244;51.950;5.902;2023-04-15T09:45:28;101272.09;;;11.95;63.66
38466;BME280;24244;51.950;5.902;2023-04-15T09:47:56;101276.50;;;12.03;63.89
38466;BME280;24244;51.950;5.902;2023-04-15T09:50:27;101277.25;;;12.11;63.87
38466;BME280;24244;51.950;5.902;2023-04-15T09:52:55;101279.81;;;12.20;63.78
38466;BME280;24244;51.950;5.902;2023-04-15T09:55:22;101284.84;;;12.29;63.55
38466;BME280;24244;51.950;5.902;2023-04-15T09:57:48;101286.16;;;12.33;63.55
38466;BME280;24244;51.950;5.902;2023-04-15T10:00:17;101283.59;;;12.40;63.64
38466;BME280;24244;51.950;5.902;2023-04-15T10:02:45;101286.69;;;12.43;63.34
38466;BME280;24244;51.950;5.902;2023-04-15T10:05:14;101282.19;;;12.44;63.01
38466;BME280;24244;51.950;5.902;2023-04-15T10:07:44;101294.91;;;12.42;62.79
38466;BME280;24244;51.950;5.902;2023-04-15T10:10:12;101286.25;;;12.40;62.04
38466;BME280;24244;51.950;5.902;2023-04-15T10:12:40;101297.19;;;12.45;62.37
38466;BME280;24244;51.950;5.902;2023-04-15T10:15:13;101299.09;;;12.51;62.16
38466;BME280;24244;51.950;5.902;2023-04-15T10:17:43;101296.34;;;12.59;62.07
38466;BME280;24244;51.950;5.902;2023-04-15T10:20:11;101293.56;;;12.67;61.87
38466;BME280;24244;51.950;5.902;2023-04-15T10:22:41;101302.28;;;12.76;62.00
38466;BME280;24244;51.950;5.902;2023-04-15T10:25:08;101295.38;;;12.81;61.90
38466;BME280;24244;51.950;5.902;2023-04-15T10:27:36;101298.69;;;12.83;61.51
38466;BME280;24244;51.950;5.902;2023-04-15T10:30:07;101312.69;;;12.85;61.52
38466;BME280;24244;51.950;5.902;2023-04-15T10:32:34;101307.72;;;12.82;61.32
38466;BME280;24244;51.950;5.902;2023-04-15T10:35:04;101302.19;;;12.84;61.24
38466;BME280;24244;51.950;5.902;2023-04-15T10:37:33;101315.78;;;12.89;61.03
38466;BME280;24244;51.950;5.902;2023-04-15T10:40:27;101308.69;;;12.96;61.01
38466;BME280;24244;51.950;5.902;2023-04-15T10:42:57;101308.56;;;13.04;60.95
38466;BME280;24244;51.950;5.902;2023-04-15T10:45:25;101310.28;;;13.12;61.18
38466;BME280;24244;51.950;5.902;2023-04-15T10:47:54;101303.22;;;13.19;60.85
38466;BME280;24244;51.950;5.902;2023-04-15T10:50:26;101307.78;;;13.25;60.19
38466;BME280;24244;51.950;5.902;2023-04-15T10:52:56;101306.59;;;13.27;59.50
38466;BME280;24244;51.950;5.902;2023-04-15T10:55:24;101306.38;;;13.29;59.81
38466;BME280;24244;51.950;5.902;2023-04-15T10:57:52;101314.03;;;13.32;60.12
38466;BME280;24244;51.950;5.902;2023-04-15T11:00:23;101313.44;;;13.37;60.32
38466;BME280;24244;51.950;5.902;2023-04-15T11:02:52;101323.94;;;13.38;59.96
38466;BME280;24244;51.950;5.902;2023-04-15T11:05:21;101323.09;;;13.38;59.64
38466;BME280;24244;51.950;5.902;2023-04-15T11:07:52;101314.91;;;13.39;59.42
38466;BME280;24244;51.950;5.902;2023-04-15T11:10:50;101326.84;;;13.43;59.31
38466;BME280;24244;51.950;5.902;2023-04-15T11:13:19;101326.13;;;13.49;59.16
38466;BME280;24244;51.950;5.902;2023-04-15T11:15:48;101322.69;;;13.55;59.10
38466;BME280;24244;51.950;5.902;2023-04-15T11:18:16;101319.22;;;13.61;59.19
38466;BME280;24244;51.950;5.902;2023-04-15T11:20:45;101329.28;;;13.59;59.13
38466;BME280;24244;51.950;5.902;2023-04-15T11:23:16;101323.75;;;13.61;59.29
38466;BME280;24244;51.950;5.902;2023-04-15T11:25:44;101328.91;;;13.62;59.44
38466;BME280;24244;51.950;5.902;2023-04-15T11:28:12;101328.50;;;13.65;58.96
38466;BME280;24244;51.950;5.902;2023-04-15T11:30:40;101331.81;;;13.67;58.86
38466;BME280;24244;51.950;5.902;2023-04-15T11:33:10;101329.50;;;13.64;58.31
38466;BME280;24244;51.950;5.902;2023-04-15T11:35:40;101328.78;;;13.70;58.77
38466;BME280;24244;51.950;5.902;2023-04-15T11:38:08;101331.28;;;13.79;58.33
38466;BME280;24244;51.950;5.902;2023-04-15T11:40:38;101334.47;;;13.89;58.28
38466;BME280;24244;51.950;5.902;2023-04-15T11:43:07;101327.97;;;13.98;58.01
38466;BME280;24244;51.950;5.902;2023-04-15T11:45:34;101339.91;;;14.02;57.55
38466;BME280;24244;51.950;5.902;2023-04-15T11:48:05;101345.88;;;14.04;57.49
38466;BME280;24244;51.950;5.902;2023-04-15T11:50:33;101343.41;;;14.02;57.43
38466;BME280;24244;51.950;5.902;2023-04-15T11:53:03;101356.34;;;13.99;56.83
38466;BME280;24244;51.950;5.902;2023-04-15T11:55:42;101351.88;;;14.06;56.99
38466;BME280;24244;51.950;5.902;2023-04-15T11:58:11;101351.91;;;14.13;57.09
38466;BME280;24244;51.950;5.902;2023-04-15T12:00:46;101363.22;;;14.15;56.98
38466;BME280;24244;51.950;5.902;2023-04-15T12:03:16;101368.53;;;14.08;56.92
38466;BME280;24244;51.950;5.902;2023-04-15T12:06:12;101354.31;;;14.07;56.51
38466;BME280;24244;51.950;5.902;2023-04-15T12:08:58;101357.25;;;14.13;56.69
38466;BME280;24244;51.950;5.902;2023-04-15T12:11:49;101362.66;;;14.19;56.64
38466;BME280;24244;51.950;5.902;2023-04-15T12:14:23;101366.00;;;14.28;56.48
38466;BME280;24244;51.950;5.902;2023-04-15T12:16:53;101362.28;;;14.29;56.10
38466;BME280;24244;51.950;5.902;2023-04-15T12:19:25;101369.25;;;14.23;55.94
38466;BME280;24244;51.950;5.902;2023-04-15T12:21:57;101375.97;;;14.13;55.53
38466;BME280;24244;51.950;5.902;2023-04-15T12:24:26;101379.03;;;14.09;56.07
38466;BME280;24244;51.950;5.902;2023-04-15T12:26:56;101369.34;;;14.08;55.29
38466;BME280;24244;51.950;5.902;2023-04-15T12:29:25;101375.97;;;14.13;55.88
38466;BME280;24244;51.950;5.902;2023-04-15T12:31:56;101379.72;;;14.18;55.85
38466;BME280;24244;51.950;5.902;2023-04-15T12:34:28;101387.56;;;14.20;55.71
38466;BME280;24244;51.950;5.902;2023-04-15T12:36:56;101390.22;;;14.20;55.52
38466;BME280;24244;51.950;5.902;2023-04-15T12:39:25;101402.50;;;14.14;55.37
38466;BME280;24244;51.950;5.902;2023-04-15T12:41:56;101394.88;;;14.11;55.79
38466;BME280;24244;51.950;5.902;2023-04-15T12:44:23;101389.00;;;14.22;56.14
38466;BME280;24244;51.950;5.902;2023-04-15T12:46:50;101394.78;;;14.26;55.68
38466;BME280;24244;51.950;5.902;2023-04-15T12:49:19;101396.88;;;14.30;55.67
38466;BME280;24244;51.950;5.902;2023-04-15T12:51:48;101404.09;;;14.36;55.70
38466;BME280;24244;51.950;5.902;2023-04-15T12:54:15;101419.28;;;14.29;55.17
38466;BME280;24244;51.950;5.902;2023-04-15T12:56:43;101410.59;;;14.21;55.23
38466;BME280;24244;51.950;5.902;2023-04-15T12:59:11;101409.97;;;14.19;55.55
38466;BME280;24244;51.950;5.902;2023-04-15T13:01:39;101417.34;;;14.17;55.71